Time;durP1;ratioP1;P1;durP2;ratioP2;P2;SDS_P1;SDS_P2;PMS_P1;PMS_P2;Temp;Humidity;BMP_temperature;BMP_pressure;BME280_temperature;BME280_humidity;BME280_pressure;Samples;Min_cycle;Max_cycle;Signal;HPM_P1;HPM_P2
2022/09/27 00:01:54;;;;;;;;;2.25;1.00;;;;;14.70;63.65;99956.34;5018159;28;46044;-63
2022/09/27 00:04:20;;;;;;;;;2.50;0.00;;;;;14.76;63.62;99981.00;5018506;28;45420;-63
2022/09/27 00:06:45;;;;;;;;;1.25;0.00;;;;;14.58;63.39;99956.13;5023692;28;45317;-63
2022/09/27 00:09:10;;;;;;;;;0.75;0.75;;;;;14.70;63.32;99975.16;5033987;28;45259;-63
2022/09/27 00:11:38;;;;;;;;;0.25;0.00;;;;;14.69;62.98;99982.34;5022780;28;45367;-63
2022/09/27 00:14:05;;;;;;;;;2.75;1.00;;;;;14.74;63.19;99988.31;5037685;28;45636;-63
2022/09/27 00:16:34;;;;;;;;;2.00;1.00;;;;;14.66;63.01;99981.69;5022267;28;45383;-63
2022/09/27 00:19:02;;;;;;;;;2.00;1.00;;;;;14.71;62.87;99993.00;5039544;28;45740;-63
2022/09/27 00:21:29;;;;;;;;;3.00;1.75;;;;;14.62;63.18;99973.81;5026726;28;46030;-63
2022/09/27 00:23:55;;;;;;;;;2.00;2.00;;;;;14.71;63.30;99984.94;5028843;28;45379;-63
2022/09/27 00:26:20;;;;;;;;;1.00;0.75;;;;;14.66;63.39;99976.31;5033147;28;45339;-63
2022/09/27 00:28:46;;;;;;;;;1.75;1.00;;;;;14.63;63.13;99978.25;5030614;28;45528;-63
2022/09/27 00:31:28;;;;;;;;;2.00;1.00;;;;;14.66;63.29;99984.38;5024563;28;46991;-63
2022/09/27 00:33:54;;;;;;;;;2.75;1.00;;;;;14.62;63.56;99989.94;5029373;28;45499;-63
2022/09/27 00:36:21;;;;;;;;;1.50;1.50;;;;;14.61;63.49;100004.31;5032616;28;45474;-63
2022/09/27 00:38:47;;;;;;;;;2.25;2.25;;;;;14.60;63.33;100010.66;5038337;28;45545;-63
2022/09/27 00:41:19;;;;;;;;;1.00;1.00;;;;;14.64;63.38;100011.31;5026781;28;47591;-63
2022/09/27 00:43:56;;;;;;;;;1.00;1.00;;;;;14.59;63.66;100006.22;5039684;28;45394;-63
2022/09/27 00:46:27;;;;;;;;;3.25;1.00;;;;;14.55;63.45;100001.97;5021357;28;45407;-63
2022/09/27 00:49:12;;;;;;;;;1.25;1.00;;;;;14.60;63.78;100010.66;5035472;28;45550;-63
2022/09/27 00:51:41;;;;;;;;;1.00;1.00;;;;;14.60;64.02;100023.19;5035246;28;47316;-63
2022/09/27 00:54:11;;;;;;;;;1.50;1.25;;;;;14.52;63.97;100006.69;5029212;28;46201;-63
2022/09/27 00:56:38;;;;;;;;;1.00;1.00;;;;;14.44;63.96;99999.06;5020178;28;45512;-63
2022/09/27 00:59:36;;;;;;;;;3.75;1.00;;;;;14.51;64.03;100021.03;5020630;28;45618;-63
2022/09/27 01:02:05;;;;;;;;;2.00;2.00;;;;;14.51;64.17;100019.22;5030528;28;46903;-63
2022/09/27 01:04:33;;;;;;;;;2.50;1.00;;;;;14.50;64.33;100024.69;5039439;28;45425;-63
2022/09/27 01:06:58;;;;;;;;;3.00;2.00;;;;;14.45;64.09;100017.78;5034268;28;45435;-63
2022/09/27 01:09:25;;;;;;;;;3.75;1.00;;;;;14.50;64.17;100024.69;5032989;28;45464;-63
2022/09/27 01:12:04;;;;;;;;;1.00;1.00;;;;;14.49;64.12;100026.50;5020564;28;46293;-63
2022/09/27 01:14:48;;;;;;;;;2.75;0.25;;;;;14.50;64.22;100024.69;5037456;28;45407;-63
2022/09/27 01:17:28;;;;;;;;;1.75;1.25;;;;;14.44;64.23;100028.59;5030654;28;45477;-63
2022/09/27 01:20:22;;;;;;;;;2.00;2.00;;;;;14.43;64.36;100025.06;5025640;28;45871;-63
2022/09/27 01:23:09;;;;;;;;;2.25;1.50;;;;;14.42;64.44;100019.78;5034721;28;47392;-63
2022/09/27 01:25:44;;;;;;;;;6.00;2.00;;;;;14.40;64.31;100022.56;5026812;28;45497;-63
2022/09/27 01:28:18;;;;;;;;;2.50;1.25;;;;;14.37;64.12;100028.13;5020545;28;45474;-63
2022/09/27 01:30:54;;;;;;;;;1.75;1.75;;;;;14.29;64.44;100035.75;5033521;28;45498;-63
2022/09/27 01:33:41;;;;;;;;;2.00;0.75;;;;;14.34;64.23;100033.66;5020605;28;45453;-63
2022/09/27 01:36:16;;;;;;;;;1.00;1.00;;;;;14.34;64.10;100025.59;5026391;28;45394;-63
2022/09/27 01:38:52;;;;;;;;;1.00;1.00;;;;;14.26;64.41;100022.50;5027389;28;45395;-63
2022/09/27 01:41:37;;;;;;;;;0.00;0.00;;;;;14.36;64.27;100028.19;5035701;28;45537;-63
2022/09/27 01:44:13;;;;;;;;;1.50;0.50;;;;;14.37;64.20;100036.16;5033581;28;45418;-63
2022/09/27 01:46:46;;;;;;;;;2.25;1.00;;;;;14.30;64.31;100024.06;5020326;28;45488;-63
2022/09/27 01:49:17;;;;;;;;;1.25;1.25;;;;;14.30;64.26;100017.81;5020146;28;45367;-63
2022/09/27 01:52:00;;;;;;;;;1.25;1.00;;;;;14.19;63.78;99994.31;5031838;28;45407;-63
2022/09/27 01:54:42;;;;;;;;;2.00;1.00;;;;;14.39;63.96;100033.41;5024728;28;45819;-63
2022/09/27 01:57:10;;;;;;;;;0.25;0.00;;;;;14.33;64.08;100018.50;5036542;28;45533;-63
2022/09/27 01:59:44;;;;;;;;;1.00;1.00;;;;;14.39;63.99;100033.41;5028102;28;45346;-64
2022/09/27 02:02:11;;;;;;;;;1.00;1.00;;;;;14.36;64.44;100034.44;5024923;28;45555;-63
2022/09/27 02:04:39;;;;;;;;;1.00;0.75;;;;;14.35;64.24;100027.34;5027824;28;45576;-63
2022/09/27 02:07:14;;;;;;;;;1.25;0.25;;;;;14.32;64.05;100032.03;5025398;28;45642;-63
2022/09/27 02:09:54;;;;;;;;;1.00;1.00;;;;;14.31;63.97;100030.28;5026448;28;45352;-63
2022/09/27 02:12:25;;;;;;;;;3.00;0.00;;;;;14.30;64.01;100037.50;5031423;28;45375;-63
2022/09/27 02:15:05;;;;;;;;;0.25;0.25;;;;;14.34;64.00;100040.84;5034220;28;47001;-63
2022/09/27 02:18:00;;;;;;;;;1.00;1.00;;;;;14.24;64.07;100016.38;5031419;28;46044;-63
2022/09/27 02:20:37;;;;;;;;;1.00;1.00;;;;;14.33;64.04;100031.91;5021560;28;45359;-63
2022/09/27 02:23:16;;;;;;;;;1.50;1.00;;;;;14.31;64.20;100027.63;5037785;28;45515;-63
2022/09/27 02:25:49;;;;;;;;;1.00;1.00;;;;;14.30;64.29;100018.69;5026475;28;45385;-63
2022/09/27 02:28:18;;;;;;;;;0.25;0.25;;;;;14.30;64.26;100012.44;5025587;28;45373;-63
2022/09/27 02:30:44;;;;;;;;;1.75;1.75;;;;;14.29;64.25;100022.34;5019003;28;45347;-63
2022/09/27 02:33:09;;;;;;;;;1.00;1.00;;;;;14.25;64.17;100012.75;5019667;28;45296;-64
2022/09/27 02:35:35;;;;;;;;;3.00;1.25;;;;;14.20;64.22;100004.06;5020145;28;45434;-63
2022/09/27 02:38:02;;;;;;;;;0.00;0.00;;;;;14.32;64.08;100027.53;5030818;28;45443;-63
2022/09/27 02:40:34;;;;;;;;;0.00;0.00;;;;;14.26;64.11;100017.13;5019413;28;45395;-63
2022/09/27 02:43:02;;;;;;;;;1.00;1.00;;;;;14.20;64.43;100021.06;5028036;28;45503;-63
2022/09/27 02:46:01;;;;;;;;;1.00;1.00;;;;;14.25;64.35;100028.84;5023576;28;45528;-63
2022/09/27 02:49:00;;;;;;;;;2.00;1.00;;;;;14.28;64.21;100025.97;5026815;28;45336;-63
2022/09/27 02:51:46;;;;;;;;;2.50;1.25;;;;;14.25;64.28;100028.84;5029039;28;45421;-63
2022/09/27 02:54:50;;;;;;;;;1.00;1.00;;;;;14.23;64.45;100028.06;5022585;28;45743;-63
2022/09/27 02:57:41;;;;;;;;;1.00;1.00;;;;;14.21;64.39;100025.44;5027993;28;45419;-63
2022/09/27 03:00:16;;;;;;;;;1.00;1.00;;;;;14.09;64.17;100010.94;5014977;28;45515;-63
2022/09/27 03:02:58;;;;;;;;;0.75;0.75;;;;;14.14;64.45;100018.72;5019510;28;45457;-63
2022/09/27 03:05:26;;;;;;;;;2.00;1.00;;;;;14.19;64.62;100027.38;5025393;28;45461;-63
2022/09/27 03:07:52;;;;;;;;;2.00;1.00;;;;;14.14;64.33;100023.25;5027076;28;45935;-63
2022/09/27 03:10:20;;;;;;;;;1.25;0.00;;;;;14.17;64.90;100034.66;5031295;28;45422;-63
2022/09/27 03:12:46;;;;;;;;;0.75;0.00;;;;;14.11;64.72;100021.59;5024262;28;45314;-63
2022/09/27 03:15:12;;;;;;;;;1.00;1.00;;;;;14.09;65.00;100026.19;5031182;28;45448;-63
2022/09/27 03:17:37;;;;;;;;;1.00;0.00;;;;;14.08;65.00;100019.06;5019813;28;46026;-63
2022/09/27 03:20:03;;;;;;;;;0.00;0.00;;;;;14.05;64.88;100008.56;5031479;28;45303;-63
2022/09/27 03:22:29;;;;;;;;;0.00;0.00;;;;;14.12;65.23;100023.34;5036038;28;45440;-64
2022/09/27 03:24:54;;;;;;;;;0.75;0.75;;;;;13.90;64.73;99989.69;5032171;28;45368;-63
2022/09/27 03:27:19;;;;;;;;;0.00;0.00;;;;;14.11;65.02;100015.38;5022823;28;47132;-63
2022/09/27 03:29:45;;;;;;;;;2.00;0.75;;;;;13.97;64.89;99989.34;5033882;28;45377;-63
2022/09/27 03:32:10;;;;;;;;;0.75;0.50;;;;;14.12;65.13;100025.16;5032335;28;45323;-63
2022/09/27 03:34:35;;;;;;;;;1.50;0.50;;;;;14.19;65.67;100035.44;5018774;28;45580;-63
2022/09/27 03:37:01;;;;;;;;;1.00;1.00;;;;;14.14;65.10;100023.25;5025952;28;46896;-63
2022/09/27 03:39:27;;;;;;;;;1.75;1.00;;;;;14.21;65.55;100032.66;5037332;28;45437;-63
2022/09/27 03:41:52;;;;;;;;;1.00;1.00;;;;;14.21;65.38;100030.81;5028176;28;45453;-63
2022/09/27 03:44:18;;;;;;;;;0.25;0.25;;;;;14.15;65.43;100023.16;5041003;28;45670;-63
2022/09/27 03:46:43;;;;;;;;;1.50;1.00;;;;;14.22;65.46;100040.63;5029055;28;45360;-63
2022/09/27 03:49:08;;;;;;;;;0.00;0.00;;;;;14.25;65.73;100035.06;5022333;28;45355;-63
2022/09/27 03:51:33;;;;;;;;;0.50;0.50;;;;;14.27;65.74;100024.25;5029402;28;45380;-63
2022/09/27 03:53:59;;;;;;;;;1.00;1.00;;;;;14.26;65.91;100031.41;5033614;28;45561;-63
2022/09/27 03:56:24;;;;;;;;;0.50;0.25;;;;;14.28;65.66;100034.00;5028484;28;45658;-63
2022/09/27 03:58:50;;;;;;;;;0.50;0.50;;;;;14.17;65.89;100009.66;5032214;28;45454;-63
2022/09/27 04:01:15;;;;;;;;;0.00;0.00;;;;;14.18;65.65;100020.28;5022315;28;45267;-63
2022/09/27 04:03:40;;;;;;;;;0.00;0.00;;;;;14.19;65.81;100010.41;5022029;28;45227;-63
2022/09/27 04:06:06;;;;;;;;;0.00;0.00;;;;;14.13;66.06;100010.75;5034817;28;47179;-63
2022/09/27 04:08:31;;;;;;;;;2.00;1.00;;;;;14.14;66.14;99993.72;5027917;28;45316;-64
2022/09/27 04:10:57;;;;;;;;;1.00;1.00;;;;;14.22;65.95;100010.25;5027174;28;45627;-63
2022/09/27 04:13:23;;;;;;;;;1.00;1.00;;;;;14.16;65.85;99997.16;5035758;28;45482;-63
2022/09/27 04:15:48;;;;;;;;;1.00;1.00;;;;;14.21;65.81;100012.03;5028455;28;45375;-63
2022/09/27 04:18:14;;;;;;;;;0.25;0.25;;;;;14.15;65.87;99993.63;5027991;28;45659;-63
2022/09/27 04:20:39;;;;;;;;;2.00;0.00;;;;;14.12;65.89;99993.81;5026846;28;45387;-63
2022/09/27 04:23:05;;;;;;;;;5.50;1.00;;;;;14.18;66.11;99997.94;5039217;28;45375;-63
2022/09/27 04:25:33;;;;;;;;;0.00;0.00;;;;;14.12;65.93;99984.91;5028223;28;46737;-63
2022/09/27 04:28:00;;;;;;;;;2.00;1.00;;;;;14.17;66.42;99999.75;5033159;28;45463;-63
2022/09/27 04:30:26;;;;;;;;;2.00;1.00;;;;;14.06;66.05;99980.75;5041600;28;45335;-63
2022/09/27 04:32:51;;;;;;;;;0.00;0.00;;;;;14.08;66.06;99990.44;5022553;28;45405;-63
2022/09/27 04:38:01;;;;;;;;;0.00;0.00;;;;;14.17;65.75;100002.44;5022795;28;45590;-63
2022/09/27 04:40:27;;;;;;;;;1.50;0.00;;;;;14.13;65.85;99986.59;5021252;28;45242;-64
2022/09/27 04:42:52;;;;;;;;;1.00;1.00;;;;;14.11;65.75;99988.53;5020494;28;45636;-63
2022/09/27 04:45:18;;;;;;;;;0.50;0.50;;;;;14.17;66.16;99997.09;5034430;28;45600;-63
2022/09/27 04:47:48;;;;;;;;;0.75;0.00;;;;;14.05;65.99;99984.41;5020688;28;45560;-63
2022/09/27 04:50:14;;;;;;;;;0.00;0.00;;;;;14.08;65.89;99987.75;5034533;28;45396;-63
2022/09/27 04:52:39;;;;;;;;;1.00;1.00;;;;;14.10;65.61;100003.78;5036892;28;45291;-63
2022/09/27 04:55:06;;;;;;;;;1.25;0.00;;;;;14.12;66.08;100003.69;5022097;28;45491;-63
2022/09/27 04:57:31;;;;;;;;;1.25;1.00;;;;;14.01;66.10;99980.16;5031715;28;45383;-63
2022/09/27 04:59:59;;;;;;;;;0.00;0.00;;;;;14.07;65.87;99996.75;5034392;28;45268;-63
2022/09/27 05:02:26;;;;;;;;;0.00;0.00;;;;;14.04;66.23;99996.94;5021305;28;45466;-63
2022/09/27 05:04:52;;;;;;;;;1.00;0.00;;;;;14.06;66.23;99995.00;5023822;28;45480;-63
2022/09/27 05:07:17;;;;;;;;;1.00;0.00;;;;;14.07;65.98;100002.13;5038526;28;46040;-63
2022/09/27 05:09:44;;;;;;;;;2.00;0.00;;;;;14.10;66.24;100006.47;5032265;28;45348;-63
2022/09/27 05:12:10;;;;;;;;;1.00;1.00;;;;;14.09;66.27;100002.88;5024015;28;45422;-63
2022/09/27 05:14:36;;;;;;;;;2.00;0.75;;;;;14.01;66.37;99986.38;5040262;28;46156;-63
2022/09/27 05:17:01;;;;;;;;;1.50;0.00;;;;;14.08;66.42;100002.97;5029942;28;45269;-63
2022/09/27 05:19:27;;;;;;;;;0.00;0.00;;;;;14.06;66.30;100002.22;5034285;28;45352;-63
2022/09/27 05:21:52;;;;;;;;;0.25;0.25;;;;;14.08;66.27;100003.88;5028340;28;45356;-63
2022/09/27 05:24:17;;;;;;;;;1.00;0.75;;;;;14.05;66.43;100009.41;5039106;28;45453;-63
2022/09/27 05:26:44;;;;;;;;;1.00;1.00;;;;;14.18;66.59;100020.28;5025325;28;45374;-63
2022/09/27 05:29:10;;;;;;;;;0.00;0.00;;;;;14.17;66.90;100018.56;5025553;28;45348;-63
2022/09/27 05:31:35;;;;;;;;;1.00;1.00;;;;;13.99;66.85;99980.25;5021705;28;45569;-64
2022/09/27 05:34:01;;;;;;;;;0.75;0.75;;;;;14.23;67.24;100011.94;5018874;28;46130;-64
2022/09/27 05:36:26;;;;;;;;;1.00;1.00;;;;;14.15;67.73;99999.00;5027285;28;45410;-64
2022/09/27 05:38:53;;;;;;;;;1.75;0.25;;;;;14.21;67.23;100005.81;5023952;28;45376;-64
2022/09/27 05:41:18;;;;;;;;;1.00;1.00;;;;;14.15;67.41;99995.44;5020259;28;45519;-64
2022/09/27 05:43:45;;;;;;;;;3.25;1.00;;;;;14.18;67.79;100009.56;5033946;28;46290;-64
2022/09/27 05:46:10;;;;;;;;;1.00;1.00;;;;;14.14;67.79;99999.09;5032916;28;45328;-64
2022/09/27 05:48:37;;;;;;;;;0.25;0.25;;;;;14.20;68.04;100022.84;5023269;28;45625;-66
2022/09/27 05:51:03;;;;;;;;;2.00;0.00;;;;;14.13;68.02;100008.09;5025829;28;45736;-67
2022/09/27 05:53:28;;;;;;;;;1.75;1.00;;;;;14.20;67.96;100013.00;5037409;28;47249;-67
2022/09/27 05:55:53;;;;;;;;;1.50;1.00;;;;;14.16;67.81;99995.34;5029172;28;45575;-66
2022/09/27 05:58:19;;;;;;;;;3.00;1.00;;;;;14.24;68.09;100011.00;5031388;28;45841;-67
2022/09/27 06:00:45;;;;;;;;;1.00;1.00;;;;;14.09;68.21;99983.25;5022346;28;47202;-67
2022/09/27 06:03:12;;;;;;;;;2.00;1.00;;;;;14.15;68.28;99995.44;5019943;28;45498;-66
2022/09/27 06:05:38;;;;;;;;;1.00;1.00;;;;;14.16;68.25;99995.34;5034503;28;45679;-67
2022/09/27 06:08:10;;;;;;;;;3.25;1.75;;;;;14.20;67.90;99990.66;5028358;28;45494;-67
2022/09/27 06:10:36;;;;;;;;;0.50;0.50;;;;;14.24;68.31;99994.91;5032924;28;45486;-66
2022/09/27 06:13:05;;;;;;;;;1.25;1.00;;;;;14.13;67.90;99978.56;5028837;28;47443;-66
2022/09/27 06:15:32;;;;;;;;;2.00;1.00;;;;;14.19;68.46;99991.63;5033481;28;45259;-66
2022/09/27 06:18:09;;;;;;;;;1.00;1.00;;;;;14.04;67.99;99974.59;5020077;28;45568;-70
2022/09/27 06:20:42;;;;;;;;;3.75;1.75;;;;;14.14;68.11;100001.78;5031338;28;45688;-70
2022/09/27 06:23:08;;;;;;;;;1.00;1.00;;;;;14.06;67.89;99989.66;5030470;28;45407;-70
2022/09/27 06:25:37;;;;;;;;;0.00;0.00;;;;;13.90;67.80;99970.06;5018932;28;45404;-70
2022/09/27 06:28:04;;;;;;;;;2.00;1.50;;;;;13.85;67.99;99953.38;5033184;28;45248;-71
2022/09/27 06:30:30;;;;;;;;;2.25;1.00;;;;;14.15;68.46;100014.22;5024126;28;45539;-70
2022/09/27 06:33:00;;;;;;;;;1.75;1.75;;;;;14.15;68.00;100016.91;5019913;28;46828;-70
2022/09/27 06:35:26;;;;;;;;;0.25;0.25;;;;;14.15;68.42;100009.72;5022037;28;45621;-71
2022/09/27 06:37:52;;;;;;;;;1.50;1.50;;;;;14.12;68.53;100004.53;5019518;28;45321;-70
2022/09/27 06:40:19;;;;;;;;;1.75;1.00;;;;;14.12;68.43;100011.75;5019239;28;45364;-65
2022/09/27 06:42:45;;;;;;;;;1.00;1.00;;;;;14.08;68.06;100003.88;5020373;28;48162;-67
2022/09/27 06:45:11;;;;;;;;;2.00;1.25;;;;;14.08;68.34;100003.88;5018935;28;45569;-67
2022/09/27 06:47:37;;;;;;;;;2.00;2.00;;;;;14.05;68.49;100004.03;5032680;28;45408;-67
2022/09/27 06:50:04;;;;;;;;;2.00;2.00;;;;;14.07;68.44;100002.13;5037602;28;45426;-67
2022/09/27 06:52:30;;;;;;;;;2.00;1.00;;;;;14.11;68.66;100004.63;5025724;28;46220;-66
2022/09/27 06:54:56;;;;;;;;;1.00;1.00;;;;;14.08;68.33;100009.22;5027317;28;45866;-65
2022/09/27 07:00:25;;;;;;;;;0.00;0.00;;;;;14.06;68.56;100005.75;5028707;28;45414;-64
2022/09/27 07:02:51;;;;;;;;;1.75;1.75;;;;;14.08;68.16;100009.22;5030328;28;45504;-65
2022/09/27 07:05:16;;;;;;;;;1.00;1.00;;;;;14.09;68.79;100010.94;5035021;28;45563;-64
2022/09/27 07:07:46;;;;;;;;;1.50;1.00;;;;;14.06;68.64;100013.81;5023519;28;45292;-64
2022/09/27 07:10:11;;;;;;;;;3.25;1.00;;;;;14.11;68.52;100021.59;5032559;28;45329;-64
2022/09/27 07:12:37;;;;;;;;;2.25;1.00;;;;;14.12;68.59;100027.84;5036319;28;45490;-64
2022/09/27 07:15:03;;;;;;;;;1.50;1.00;;;;;14.12;68.53;100022.47;5026708;28;45531;-65
2022/09/27 07:17:29;;;;;;;;;3.00;3.00;;;;;14.13;68.62;100024.19;5031904;28;46613;-64
2022/09/27 07:19:54;;;;;;;;;1.75;0.75;;;;;14.12;68.48;100030.53;5025331;28;45546;-65
2022/09/27 07:22:20;;;;;;;;;1.50;0.00;;;;;14.12;68.68;100033.22;5031601;28;45408;-64
2022/09/27 07:24:46;;;;;;;;;1.50;1.00;;;;;14.17;68.77;100039.16;5018647;28;45345;-64
2022/09/27 07:27:11;;;;;;;;;1.00;1.00;;;;;14.16;68.98;100030.22;5023954;28;45550;-64
2022/09/27 07:29:37;;;;;;;;;2.00;1.00;;;;;14.14;68.48;100039.34;5021844;28;45358;-64
2022/09/27 07:32:03;;;;;;;;;1.00;1.00;;;;;14.15;68.48;100052.69;5035278;28;45340;-64
2022/09/27 07:34:29;;;;;;;;;2.00;1.00;;;;;14.15;68.36;100052.69;5033093;28;45611;-65
2022/09/27 07:37:04;;;;;;;;;1.25;1.00;;;;;14.19;68.71;100056.91;5024790;28;45665;-65
2022/09/27 07:39:30;;;;;;;;;1.00;1.00;;;;;14.18;68.50;100048.94;5029144;28;45761;-65
2022/09/27 07:41:55;;;;;;;;;1.50;1.50;;;;;14.21;68.50;100060.34;5026131;28;46033;-65
2022/09/27 07:44:21;;;;;;;;;1.00;1.00;;;;;14.22;68.67;100058.56;5030274;28;45338;-65
2022/09/27 07:46:46;;;;;;;;;1.00;1.00;;;;;14.24;68.53;100067.38;5035112;28;45280;-65
2022/09/27 07:49:11;;;;;;;;;2.50;0.75;;;;;14.25;68.56;100066.44;5025200;28;45631;-65
2022/09/27 07:51:37;;;;;;;;;1.00;1.00;;;;;14.27;68.99;100065.38;5024915;28;45329;-65
2022/09/27 07:54:02;;;;;;;;;3.00;1.25;;;;;14.30;68.60;100069.72;5022026;28;45240;-65
2022/09/27 07:56:28;;;;;;;;;1.00;1.00;;;;;14.33;68.42;100079.38;5038130;28;45458;-65
2022/09/27 07:58:53;;;;;;;;;0.25;0.25;;;;;14.34;68.56;100067.72;5021343;28;45644;-65
2022/09/27 08:01:19;;;;;;;;;1.25;0.50;;;;;14.34;68.25;100068.56;5031626;28;45941;-65
2022/09/27 08:03:44;;;;;;;;;2.00;1.00;;;;;14.37;67.94;100081.81;5017394;28;45371;-65
2022/09/27 08:06:09;;;;;;;;;0.75;0.75;;;;;14.35;67.84;100085.53;5018256;28;45469;-65
2022/09/27 08:08:35;;;;;;;;;1.00;1.00;;;;;14.36;67.94;100077.38;5027369;28;45737;-65
2022/09/27 08:11:10;;;;;;;;;1.00;1.00;;;;;14.40;68.21;100091.50;5026224;28;45485;-65
2022/09/27 08:13:36;;;;;;;;;3.50;1.00;;;;;14.39;67.92;100087.94;5030319;28;45390;-65
2022/09/27 08:16:02;;;;;;;;;0.00;0.00;;;;;14.42;68.02;100098.50;5022392;28;45367;-65
2022/09/27 08:18:27;;;;;;;;;0.75;0.75;;;;;14.44;67.62;100093.06;5018094;28;45468;-65
2022/09/27 08:20:55;;;;;;;;;2.00;1.00;;;;;14.42;68.02;100089.59;5021246;28;45596;-65
2022/09/27 08:23:21;;;;;;;;;1.75;1.00;;;;;14.42;67.72;100087.78;5021639;28;45260;-65
2022/09/27 08:25:52;;;;;;;;;1.00;1.00;;;;;14.40;67.90;100073.56;5017980;28;45631;-65
2022/09/27 08:28:17;;;;;;;;;2.00;1.75;;;;;14.48;67.88;100089.22;5023168;28;45574;-65
2022/09/27 08:30:43;;;;;;;;;1.25;1.00;;;;;14.51;68.06;100096.25;5027716;28;45844;-65
2022/09/27 08:33:08;;;;;;;;;1.75;1.50;;;;;14.53;67.37;100097.00;5025852;28;45335;-65
2022/09/27 08:35:33;;;;;;;;;1.00;1.00;;;;;14.49;67.46;100090.09;5030120;28;45226;-65
2022/09/27 08:38:00;;;;;;;;;1.00;1.00;;;;;14.56;67.60;100103.06;5024026;28;45358;-65
2022/09/27 08:40:56;;;;;;;;;1.25;1.00;;;;;14.62;67.46;100109.94;5031606;28;48481;-65
2022/09/27 08:43:41;;;;;;;;;5.00;1.75;;;;;14.63;67.65;100104.47;5027770;28;45398;-65
2022/09/27 08:46:12;;;;;;;;;1.00;1.00;;;;;14.64;67.90;100108.03;5028063;28;45495;-65
2022/09/27 08:48:38;;;;;;;;;1.00;1.00;;;;;14.66;67.27;100116.00;5027834;28;45402;-65
2022/09/27 08:51:09;;;;;;;;;1.00;1.00;;;;;14.67;67.43;100118.59;5029994;28;46387;-66
2022/09/27 08:53:56;;;;;;;;;0.75;0.75;;;;;14.67;66.65;100125.75;5028572;28;45405;-65
2022/09/27 08:56:22;;;;;;;;;1.00;0.00;;;;;14.65;66.26;100115.13;5020667;28;45375;-65
2022/09/27 08:59:14;;;;;;;;;2.00;1.00;;;;;14.67;66.98;100123.97;5022468;28;45333;-65
2022/09/27 09:01:40;;;;;;;;;1.00;1.00;;;;;14.66;66.57;100110.63;5028593;28;46014;-66
2022/09/27 09:04:09;;;;;;;;;1.25;1.00;;;;;14.69;66.46;100110.44;5028507;28;45484;-65
2022/09/27 09:06:58;;;;;;;;;2.25;1.50;;;;;14.72;66.61;100111.13;5029278;28;45347;-65
2022/09/27 09:09:36;;;;;;;;;1.00;1.00;;;;;14.72;66.62;100113.81;5032947;28;45522;-65
2022/09/27 09:15:29;;;;;;;;;0.25;0.25;;;;;14.79;66.67;100117.00;5032418;28;45296;-65
2022/09/27 09:18:03;;;;;;;;;0.75;0.75;;;;;14.80;66.19;100121.38;5034025;28;45318;-65
2022/09/27 09:20:53;;;;;;;;;2.25;1.00;;;;;14.82;66.17;100122.19;5033750;28;45510;-66
2022/09/27 09:23:21;;;;;;;;;0.00;0.00;;;;;14.82;66.13;100117.66;5033735;28;46268;-65
2022/09/27 09:26:06;;;;;;;;;1.00;0.00;;;;;14.86;66.15;100109.44;5026747;28;45390;-66
2022/09/27 09:28:38;;;;;;;;;1.00;1.00;;;;;14.86;66.16;100106.75;5030062;28;45376;-65
2022/09/27 09:31:20;;;;;;;;;3.75;1.00;;;;;14.88;65.80;100105.66;5051471;28;45518;-66
2022/09/27 09:33:51;;;;;;;;;1.75;1.00;;;;;14.87;66.63;100092.31;5025791;28;45627;-65
2022/09/27 09:36:24;;;;;;;;;1.00;1.00;;;;;14.90;65.71;100092.16;5036908;28;45585;-66
2022/09/27 09:38:52;;;;;;;;;3.00;0.00;;;;;14.93;65.90;100102.72;5024184;28;45423;-65
2022/09/27 09:41:37;;;;;;;;;2.75;1.00;;;;;14.93;65.28;100103.56;5039764;28;45554;-66
2022/09/27 09:44:18;;;;;;;;;1.00;1.00;;;;;14.95;65.60;100090.03;5032820;28;45536;-66
2022/09/27 09:46:54;;;;;;;;;1.00;0.00;;;;;14.96;65.32;100083.72;5038493;28;45606;-65
2022/09/27 09:49:35;;;;;;;;;2.75;1.00;;;;;14.97;65.06;100078.25;5033968;28;45308;-65
2022/09/27 09:52:13;;;;;;;;;1.00;1.00;;;;;15.05;65.22;100082.28;5040042;28;45390;-64
2022/09/27 09:54:53;;;;;;;;;1.00;1.00;;;;;15.08;65.76;100076.72;5028341;28;45515;-65
2022/09/27 09:57:24;;;;;;;;;2.50;1.00;;;;;15.07;64.53;100067.81;5019338;28;45340;-65
2022/09/27 10:00:00;;;;;;;;;1.75;1.00;;;;;15.13;65.27;100063.84;5026766;28;45393;-65
2022/09/27 10:02:34;;;;;;;;;0.50;0.50;;;;;15.17;64.93;100062.72;5032728;28;45526;-66
2022/09/27 10:05:01;;;;;;;;;1.00;1.00;;;;;15.25;64.43;100060.44;5029813;28;46041;-65
2022/09/27 10:07:28;;;;;;;;;1.00;1.00;;;;;15.28;64.11;100048.59;5031974;28;45439;-65
2022/09/27 10:09:58;;;;;;;;;0.50;0.50;;;;;15.31;63.84;100045.72;5024241;28;45443;-66
2022/09/27 10:12:24;;;;;;;;;0.25;0.25;;;;;15.29;64.17;100037.75;5028795;28;45613;-65
2022/09/27 10:14:53;;;;;;;;;3.00;0.75;;;;;15.32;64.22;100037.56;5024652;28;46858;-65
2022/09/27 10:17:23;;;;;;;;;1.50;1.00;;;;;15.35;63.87;100048.13;5038886;28;45368;-65
2022/09/27 10:19:51;;;;;;;;;0.25;0.25;;;;;15.41;63.30;100043.31;5031173;28;45415;-65
2022/09/27 10:22:29;;;;;;;;;0.75;0.75;;;;;15.43;62.87;100044.94;5028380;28;45559;-65
2022/09/27 10:25:01;;;;;;;;;0.00;0.00;;;;;15.44;62.69;100041.28;5040334;28;46178;-65
2022/09/27 10:27:36;;;;;;;;;1.50;1.00;;;;;15.45;63.08;100045.72;5024474;28;45624;-65
2022/09/27 10:30:03;;;;;;;;;1.50;1.00;;;;;15.46;62.72;100033.13;5029395;28;45386;-66
2022/09/27 10:32:35;;;;;;;;;0.00;0.00;;;;;15.49;62.97;100041.00;5037405;28;45375;-65
2022/09/27 10:35:28;;;;;;;;;0.25;0.00;;;;;15.52;62.59;100041.66;5025638;28;45343;-65
2022/09/27 10:38:15;;;;;;;;;0.75;0.75;;;;;15.52;62.39;100041.66;5019453;28;45617;-65
2022/09/27 10:40:41;;;;;;;;;0.00;0.00;;;;;15.54;62.95;100045.13;5033954;28;45377;-65
2022/09/27 10:43:31;;;;;;;;;1.25;1.25;;;;;15.55;63.32;100046.84;5032338;28;45402;-65
2022/09/27 10:46:12;;;;;;;;;1.00;1.00;;;;;15.51;63.89;100058.75;5024908;28;46225;-65
2022/09/27 10:48:40;;;;;;;;;1.00;1.00;;;;;15.50;64.08;100053.47;5030809;28;45568;-65
2022/09/27 10:51:24;;;;;;;;;1.00;1.00;;;;;15.46;64.93;100063.56;5032711;28;45406;-65
2022/09/27 10:53:49;;;;;;;;;2.50;2.50;;;;;15.48;65.08;100066.16;5025336;28;45387;-65
2022/09/27 10:56:22;;;;;;;;;1.00;1.00;;;;;15.45;65.34;100067.22;5033670;28;46287;-66
2022/09/27 10:58:48;;;;;;;;;1.00;1.00;;;;;15.42;66.00;100061.16;5027983;28;45442;-65
2022/09/27 11:01:13;;;;;;;;;2.00;2.00;;;;;15.38;65.95;100066.75;5037228;28;45560;-65
2022/09/27 11:03:49;;;;;;;;;1.00;1.00;;;;;15.37;65.95;100058.78;5023048;28;45363;-66
2022/09/27 11:06:23;;;;;;;;;2.00;1.50;;;;;15.38;66.03;100065.88;5029276;28;46106;-65
2022/09/27 11:08:51;;;;;;;;;1.00;1.00;;;;;15.37;66.18;100066.84;5029617;28;45371;-65
2022/09/27 11:11:18;;;;;;;;;1.00;1.00;;;;;15.37;66.56;100064.16;5029519;28;45881;-65
2022/09/27 11:14:06;;;;;;;;;2.75;1.00;;;;;15.36;66.12;100068.66;5032950;28;45502;-65
2022/09/27 11:16:43;;;;;;;;;1.00;1.00;;;;;15.33;66.64;100063.47;5031060;28;46301;-65
2022/09/27 11:19:12;;;;;;;;;1.00;1.00;;;;;15.29;66.49;100058.41;5028732;28;45956;-66
2022/09/27 11:21:51;;;;;;;;;1.00;1.00;;;;;15.26;66.46;100045.16;5027804;28;45456;-65
2022/09/27 11:24:40;;;;;;;;;1.25;1.00;;;;;15.22;67.06;100046.28;5026907;28;45489;-65
2022/09/27 11:27:21;;;;;;;;;1.00;1.00;;;;;15.23;66.85;100054.25;5023948;28;45445;-65
2022/09/27 11:30:05;;;;;;;;;2.50;2.00;;;;;15.22;67.07;100057.94;5018925;28;45575;-66
2022/09/27 11:32:58;;;;;;;;;1.25;1.00;;;;;15.22;66.65;100057.03;5023554;28;45943;-68
2022/09/27 11:35:36;;;;;;;;;0.00;0.00;;;;;15.20;66.57;100057.13;5022679;28;45521;-68
2022/09/27 11:38:01;;;;;;;;;1.00;1.00;;;;;15.18;66.59;100070.69;5020149;28;45542;-68
2022/09/27 11:40:46;;;;;;;;;1.75;1.00;;;;;15.17;66.70;100066.28;5023145;28;45548;-67
2022/09/27 11:43:49;;;;;;;;;4.25;0.00;;;;;15.15;66.58;100068.19;5030371;28;45928;-68
2022/09/27 11:46:34;;;;;;;;;3.00;1.00;;;;;15.12;66.79;100060.31;5034715;28;45514;-68
2022/09/27 11:49:12;;;;;;;;;1.00;1.00;;;;;15.09;67.15;100057.81;5017683;28;45593;-67
2022/09/27 11:52:15;;;;;;;;;1.50;1.50;;;;;15.06;66.96;100047.25;5022741;28;45620;-67
2022/09/27 11:55:02;;;;;;;;;1.50;0.50;;;;;15.06;67.31;100038.34;5009602;28;45549;-67